Madrid El Retiro

latitud = 40° 24' 40''N | longitud = 003° 40' 41''W
667 metros sobre el nivel del mar | datos mensuales

Fecha, hora, temperatura, viento dirección y velocidad, humedad y presión.

  • 22-11-2017 09:00:00 | 5.70°C | Nordeste |2.00 km/h | 66.00% | 939.20 hPa
  • 22-11-2017 08:00:00 | 5.80°C | Calma |0.00 km/h | 65.00% | 939.00 hPa
  • 22-11-2017 07:00:00 | 5.20°C | Nordeste |3.00 km/h | 68.00% | 939.10 hPa
  • 22-11-2017 06:00:00 | 6.00°C | Nordeste |3.00 km/h | 64.00% | 939.10 hPa
  • 22-11-2017 05:00:00 | 6.20°C | Calma |0.00 km/h | 65.00% | 939.50 hPa
  • 22-11-2017 04:00:00 | 6.50°C | Calma |0.00 km/h | 64.00% | 939.70 hPa
  • 22-11-2017 03:00:00 | 7.50°C | Este |2.00 km/h | 62.00% | 940.20 hPa
  • 22-11-2017 02:00:00 | 8.40°C | Nordeste |5.00 km/h | 60.00% | 940.50 hPa
  • 22-11-2017 01:00:00 | 7.70°C | Calma |0.00 km/h | 65.00% | 941.10 hPa
  • 22-11-2017 00:00:00 | 8.20°C | Calma |0.00 km/h | 64.00% | 941.30 hPa
  • 21-11-2017 23:00:00 | 9.30°C | Nordeste |2.00 km/h | 61.00% | 941.40 hPa
  • 21-11-2017 22:00:00 | 9.30°C | Calma |0.00 km/h | 63.00% | 941.50 hPa
  • 21-11-2017 21:00:00 | 9.80°C | Calma |0.00 km/h | 58.00% | 941.60 hPa
  • 21-11-2017 20:00:00 | 10.90°C | Calma |0.00 km/h | 54.00% | 941.80 hPa
  • 21-11-2017 19:00:00 | 11.60°C | Calma |0.00 km/h | 51.00% | 941.90 hPa
  • 21-11-2017 18:00:00 | 12.80°C | Calma |0.00 km/h | 49.00% | 941.80 hPa
  • 21-11-2017 17:00:00 | 14.70°C | Calma |0.00 km/h | 45.00% | 942.00 hPa
  • 21-11-2017 16:00:00 | 15.20°C | Calma |0.00 km/h | 44.00% | 942.10 hPa
  • 21-11-2017 15:00:00 | 14.80°C | Sudoeste |3.00 km/h | 45.00% | 942.50 hPa
  • 21-11-2017 14:00:00 | 14.40°C | Calma |0.00 km/h | 46.00% | 943.10 hPa
  • 21-11-2017 13:00:00 | 12.80°C | Sudeste |3.00 km/h | 50.00% | 944.00 hPa
  • 21-11-2017 12:00:00 | 11.20°C | Este |2.00 km/h | 53.00% | 944.70 hPa
  • 21-11-2017 11:00:00 | 9.20°C | Este |3.00 km/h | 58.00% | 944.90 hPa
  • 21-11-2017 10:00:00 | 7.20°C | Nordeste |3.00 km/h | 64.00% | 945.10 hPa